Nearby METAR Reports

 

KSJC - San Jose, California, USA
Distance from station: NE 14km
Updated: 16/01/2021 17:53
Partly cloudy
Partly cloudy
 Wind from NW
Wind: NW 7 km/h
Temperature: 16°C
Dew Point: 9°C
Humidity: 63%
Barometer: 1019.3 hPa
Clouds: Partly cloudy
Visibility: 16 km
Cloud details: Few Clouds 3048 m
Partly cloudy 4877 m
2021/01/17 01:53 KSJC 170153Z 32004KT 10SM FEW100 SCT160 16/09 A3010 RMK AO2 SLP191 T01560089
KNUQ - Moffett Nas/Mtn, California, USA
Distance from station: N 14km
Updated: 16/01/2021 18:35
Clear
Clear
 Wind from N
Wind: N 7 km/h
Temperature: 13°C
Dew Point: 10°C
Humidity: 82%
Barometer: 1020 hPa
Clouds: Clear
Visibility: 16 km
2021/01/17 02:35 KNUQ 170235Z AUTO 35004KT 10SM CLR 13/10 A3012 RMK AO2
 
KPAO - Palo Alto, California, USA
Distance from station: NNW 23km
Updated: 16/01/2021 17:47
Clear
Clear
 Wind from NNW
Wind: NNW 11 km/h
Temperature: 12°C
Dew Point: 9°C
Humidity: 82%
Barometer: 1019.6 hPa
Clouds: Clear
Visibility: 16 km
2021/01/17 01:47 KPAO 170147Z 33006KT 10SM SKC 12/09 A3011
KRHV - San Jose/Reid, California, USA
Distance from station: ENE 19km
Updated: 16/01/2021 17:54
Clear
Clear
 Wind from WNW
Wind: WNW 7 km/h
Temperature: 18°C
Dew Point: 9°C
Humidity: 56%
Barometer: 1019.3 hPa
Clouds: Clear
Visibility: 16 km
2021/01/17 01:54 KRHV 170154Z 29004KT 10SM SKC 18/09 A3010
 
KOAK - Oakland, California, USA
Distance from station: NNW 50km
Updated: 16/01/2021 17:53
Few Clouds
Few Clouds
 Wind from NW
Wind: NW 13 km/h
Temperature: 14°C
Dew Point: 10°C
Humidity: 77%
Barometer: 1020 hPa
Clouds: Few Clouds
Visibility: 16 km
Cloud details: Few Clouds 152 m
Few Clouds 6096 m
2021/01/17 01:53 KOAK 170153Z 31007KT 10SM FEW005 FEW200 14/10 A3012 RMK AO2 SLP198 T01390100
KSQL - San Carlos Airpo, California, USA
Distance from station: NW 34km
Updated: 16/01/2021 17:47
Partly cloudy
Partly cloudy
 Wind from varies
Wind: varies 6 km/h
Temperature: 14°C
Dew Point: 12°C
Humidity: 88%
Barometer: 1019.6 hPa
Clouds: Partly cloudy
Visibility: 16 km
Cloud details: Partly cloudy 6096 m
2021/01/17 01:47 KSQL 170147Z VRB03KT 10SM SCT200 14/12 A3011
 
KSFO - San Francisco, California, USA
Distance from station: NW 49km
Updated: 16/01/2021 17:56
Partly cloudy
Partly cloudy
 Wind from WNW
Wind: WNW 28 km/h
Temperature: 12°C
Dew Point: 9°C
Humidity: 82%
Barometer: 1019.3 hPa
Clouds: Partly cloudy
Visibility: 16 km
Cloud details: Few Clouds 91 m
Partly cloudy 6096 m
2021/01/17 01:56 KSFO 170156Z 30015KT 10SM FEW003 SCT200 12/09 A3010 RMK AO2 SLP194 T01170094
KE16 - San Martin, California, USA
Distance from station: ESE 43km
Updated: 16/01/2021 18:35
Clear
Clear
 Wind from NW
Wind: NW 7 km/h
Temperature: 17°C
Dew Point: 7°C
Humidity: 52%
Barometer: 1020 hPa
Clouds: Clear
Visibility: 16 km
2021/01/17 02:35 KE16 170235Z AUTO 32004KT 10SM CLR 17/07 A3012 RMK AO2 PWINO PNO
 
KWVI - Watsonville, California, USA
Distance from station: SSE 44km
Updated: 16/01/2021 17:53
Mist, Overcast
Mist, Overcast
 Wind from SSW
Wind: SSW 9 km/h
Temperature: 11°C
Dew Point: 10°C
Humidity: 94%
Barometer: 1019.3 hPa
Summary: Mist
Clouds: Overcast
Visibility: 1.2 km
Cloud details: Overcast 61 m
2021/01/17 01:53 KWVI 170153Z AUTO 20005KT 3/4SM BR VV002 11/10 A3010 RMK AO2 SLP193 T01060100
KHAF - Half Moon Bay, California, USA
Distance from station: WNW 50km
Updated: 16/01/2021 18:35
Light rain, Overcast
Light rain, Overcast
 Wind from NNW
Wind: NNW 9 km/h
Temperature: 10°C
Wind Chill: 9°C
Dew Point: 10°C
Humidity: 100%
Barometer: 1020.7 hPa
Summary: Light rain
Clouds: Overcast
Visibility: 6 km
Cloud details: Overcast 122 m
2021/01/17 02:35 KHAF 170235Z AUTO 34005KT 4SM -RA OVC004 10/10 A3014 RMK AO2
 
KHWD - Hayward, California, USA
Distance from station: N 44km
Updated: 16/01/2021 17:54
Clear
Clear
 Wind from NW
Wind: NW 7 km/h
Temperature: 12°C
Dew Point: 9°C
Humidity: 82%
Barometer: 1019.6 hPa
Clouds: Clear
Visibility: 16 km
2021/01/17 01:54 KHWD 170154Z 31004KT 10SM CLR 12/09 A3011 RMK AO2 SLP204 T01220089
KLVK - Livermore, California, USA
Distance from station: NNE 51km
Updated: 16/01/2021 17:53
Clear
Clear
 Wind from calm
Wind: Calm
Temperature: 17°C
Dew Point: 8°C
Humidity: 56%
Barometer: 1019.3 hPa
Clouds: Clear
Visibility: 16 km
2021/01/17 01:53 KLVK 170153Z 00000KT 10SM CLR 17/08 A3010 RMK AO2 SLP190 T01720078